createdAt,value
2022-12-03T00:02:23.049Z,31.30
2022-12-03T00:04:50.435Z,28.55
2022-12-03T00:07:17.833Z,33.58
2022-12-03T00:09:44.952Z,30.67
2022-12-03T00:12:12.024Z,25.90
2022-12-03T00:14:44.472Z,29.52
2022-12-03T00:17:12.022Z,30.40
2022-12-03T00:19:39.076Z,30.10
2022-12-03T00:22:06.138Z,27.40
2022-12-03T00:24:33.234Z,28.48
2022-12-03T00:27:00.293Z,27.77
2022-12-03T00:29:27.373Z,28.55
2022-12-03T00:31:54.484Z,25.85
2022-12-03T00:34:22.379Z,27.92
2022-12-03T00:36:49.427Z,24.60
2022-12-03T00:39:16.512Z,25.40
2022-12-03T00:41:43.615Z,24.63
2022-12-03T00:44:11.890Z,25.58
2022-12-03T00:46:39.004Z,20.20
2022-12-03T00:49:06.212Z,25.45
2022-12-03T00:51:33.364Z,26.55
2022-12-03T00:54:00.414Z,21.60
2022-12-03T00:56:27.517Z,23.67
2022-12-03T00:58:54.669Z,22.70
2022-12-03T01:01:21.831Z,22.25
2022-12-03T01:03:48.938Z,20.17
2022-12-03T01:06:15.990Z,22.65
2022-12-03T01:08:43.023Z,20.85
2022-12-03T01:11:30.084Z,20.60
2022-12-03T01:13:57.093Z,18.70
2022-12-03T01:16:24.245Z,18.00
2022-12-03T01:18:52.775Z,20.52
2022-12-03T01:21:20.040Z,18.80
2022-12-03T01:23:47.108Z,18.85
2022-12-03T01:26:14.168Z,18.73
2022-12-03T01:28:42.118Z,20.27
2022-12-03T01:31:28.134Z,21.00
2022-12-03T01:33:55.448Z,20.25
2022-12-03T01:36:22.531Z,17.67
2022-12-03T01:38:49.651Z,15.85
2022-12-03T01:41:19.928Z,19.83
2022-12-03T01:43:47.001Z,19.67
2022-12-03T01:46:17.286Z,18.15
2022-12-03T01:48:44.376Z,16.20
2022-12-03T01:51:11.424Z,17.13
2022-12-03T01:53:38.491Z,18.65
2022-12-03T01:56:05.631Z,17.33
2022-12-03T01:58:32.684Z,17.20
2022-12-03T02:01:00.702Z,17.42
2022-12-03T02:03:27.802Z,19.98
2022-12-03T02:05:54.984Z,21.00
2022-12-03T02:08:31.773Z,18.98
2022-12-03T02:11:19.107Z,19.13
2022-12-03T02:13:46.122Z,18.05
2022-12-03T02:16:13.245Z,18.45
2022-12-03T02:18:40.417Z,19.88
2022-12-03T02:21:07.538Z,22.00
2022-12-03T02:23:47.314Z,20.05
2022-12-03T02:26:14.338Z,17.95
2022-12-03T02:28:41.486Z,20.58
2022-12-03T02:31:08.640Z,19.33
2022-12-03T02:33:35.787Z,19.92
2022-12-03T02:36:04.021Z,22.10
2022-12-03T02:38:31.341Z,19.77
2022-12-03T02:40:59.044Z,21.02
2022-12-03T02:43:26.222Z,20.73
2022-12-03T02:45:54.378Z,20.95
2022-12-03T02:48:26.345Z,19.55
2022-12-03T02:50:55.539Z,19.02
2022-12-03T02:53:26.662Z,20.00
2022-12-03T02:55:53.992Z,18.77
2022-12-03T02:58:21.124Z,19.48
2022-12-03T03:00:49.310Z,20.00
2022-12-03T03:03:16.429Z,20.38
2022-12-03T03:05:43.508Z,19.77
2022-12-03T03:08:10.694Z,20.25
2022-12-03T03:10:38.340Z,20.85
2022-12-03T03:13:07.349Z,19.08
2022-12-03T03:15:34.359Z,19.65
2022-12-03T03:18:01.390Z,20.92
2022-12-03T03:20:28.454Z,21.00
2022-12-03T03:22:55.528Z,20.42
2022-12-03T03:25:24.636Z,20.92
2022-12-03T03:27:51.761Z,19.20
2022-12-03T03:30:18.805Z,20.98
2022-12-03T03:32:55.210Z,19.70
2022-12-03T03:35:22.312Z,20.25
2022-12-03T03:37:49.323Z,18.60
2022-12-03T03:40:16.364Z,19.88
2022-12-03T03:42:43.388Z,20.67
2022-12-03T03:45:10.577Z,18.25
2022-12-03T03:47:37.676Z,19.17
2022-12-03T03:50:04.954Z,18.88
2022-12-03T03:52:32.090Z,20.88
2022-12-03T03:54:59.141Z,19.88
2022-12-03T03:57:26.207Z,18.33
2022-12-03T03:59:53.211Z,18.23
2022-12-03T04:02:20.793Z,19.83
2022-12-03T04:04:47.877Z,19.75
2022-12-03T04:07:15.462Z,17.30
2022-12-03T04:09:42.498Z,21.17
2022-12-03T04:12:28.358Z,20.88
2022-12-03T04:14:55.647Z,20.73
2022-12-03T04:17:22.911Z,20.95
2022-12-03T04:19:49.921Z,20.73
2022-12-03T04:22:35.658Z,22.27
2022-12-03T04:25:21.379Z,21.55
2022-12-03T04:28:07.145Z,19.42
2022-12-03T04:30:34.237Z,20.08
2022-12-03T04:33:19.820Z,21.55
2022-12-03T04:35:47.024Z,22.98
2022-12-03T04:38:14.919Z,23.17
2022-12-03T04:41:00.442Z,24.45
2022-12-03T04:43:34.276Z,21.90
2022-12-03T04:46:01.528Z,22.30
2022-12-03T04:48:28.642Z,24.90
2022-12-03T04:50:55.713Z,23.00
2022-12-03T04:53:22.795Z,22.33
2022-12-03T04:55:49.849Z,23.92
2022-12-03T04:58:16.934Z,22.67
2022-12-03T05:00:44.004Z,25.75
2022-12-03T05:03:11.060Z,24.08
2022-12-03T05:05:38.149Z,24.13
2022-12-03T05:08:05.427Z,25.05
2022-12-03T05:10:32.537Z,24.13
2022-12-03T05:12:59.602Z,27.75
2022-12-03T05:15:26.663Z,25.90
2022-12-03T05:17:53.775Z,23.13
2022-12-03T05:20:39.559Z,25.83
2022-12-03T05:23:06.680Z,24.10
2022-12-03T05:25:33.702Z,29.30
2022-12-03T05:28:00.774Z,26.33
2022-12-03T05:30:27.869Z,27.38
2022-12-03T05:32:55.015Z,27.65
2022-12-03T05:35:22.061Z,28.90
2022-12-03T05:37:49.175Z,28.13
2022-12-03T05:40:16.270Z,26.77
2022-12-03T05:42:56.703Z,29.40
2022-12-03T05:45:24.694Z,28.73
2022-12-03T05:47:52.206Z,27.52
2022-12-03T05:50:19.641Z,33.25
2022-12-03T05:52:46.762Z,31.08
2022-12-03T05:55:13.930Z,30.92
2022-12-03T05:57:41.055Z,32.30
2022-12-03T06:00:17.845Z,33.85
2022-12-03T06:02:45.010Z,29.48
2022-12-03T06:05:12.334Z,34.33
2022-12-03T06:07:39.469Z,28.60
2022-12-03T06:10:06.982Z,31.23
2022-12-03T06:12:34.096Z,31.73
2022-12-03T06:15:01.202Z,30.55
2022-12-03T06:17:28.257Z,33.38
2022-12-03T06:19:55.405Z,32.20
2022-12-03T06:22:22.432Z,35.42
2022-12-03T06:24:50.189Z,37.15
2022-12-03T06:27:17.408Z,38.28
2022-12-03T06:29:44.541Z,34.85
2022-12-03T06:32:11.715Z,35.58
2022-12-03T06:34:38.953Z,38.13
2022-12-03T06:37:06.084Z,35.33
2022-12-03T06:39:33.173Z,35.38
2022-12-03T06:42:00.232Z,35.55
2022-12-03T06:44:27.291Z,35.28
2022-12-03T06:46:54.495Z,34.97
2022-12-03T06:49:21.622Z,35.72
2022-12-03T06:51:48.661Z,39.83
2022-12-03T06:54:15.718Z,38.30
2022-12-03T06:56:45.426Z,37.28
2022-12-03T06:59:12.733Z,41.40
2022-12-03T07:01:39.912Z,39.80
2022-12-03T07:04:07.019Z,38.65
2022-12-03T07:06:34.125Z,39.88
2022-12-03T07:09:01.177Z,42.72
2022-12-03T07:11:31.272Z,40.53
2022-12-03T07:14:04.409Z,42.33
2022-12-03T07:16:32.431Z,47.20
2022-12-03T07:18:59.588Z,44.30
2022-12-03T07:21:26.646Z,44.13
2022-12-03T07:23:53.732Z,43.85
2022-12-03T07:26:20.956Z,47.97
2022-12-03T07:28:51.094Z,47.88
2022-12-03T07:31:18.185Z,44.47
2022-12-03T07:33:45.241Z,40.97
2022-12-03T07:36:12.330Z,44.15
2022-12-03T07:38:39.411Z,52.25
2022-12-03T07:41:06.577Z,43.95
2022-12-03T07:43:33.691Z,49.00
2022-12-03T07:46:00.788Z,45.70
2022-12-03T07:48:27.949Z,51.20
2022-12-03T07:50:55.065Z,49.80
2022-12-03T07:53:22.201Z,49.30
2022-12-03T07:55:49.270Z,47.13
2022-12-03T07:58:16.347Z,47.38
2022-12-03T08:00:43.467Z,48.08
2022-12-03T08:03:10.612Z,49.45
2022-12-03T08:05:37.636Z,52.35
2022-12-03T08:08:04.767Z,54.75
2022-12-03T08:10:31.814Z,49.33
2022-12-03T08:12:59.108Z,49.80
2022-12-03T08:15:26.249Z,50.92
2022-12-03T08:18:00.663Z,48.85
2022-12-03T08:20:29.078Z,51.28
2022-12-03T08:22:56.397Z,51.08
2022-12-03T08:25:27.421Z,47.80
2022-12-03T08:27:55.933Z,48.08
2022-12-03T08:30:23.082Z,53.03
2022-12-03T08:32:50.116Z,49.05
2022-12-03T08:35:27.450Z,50.75
2022-12-03T08:37:58.742Z,50.72
2022-12-03T08:40:29.042Z,50.85
2022-12-03T08:42:56.085Z,50.25
2022-12-03T08:45:29.003Z,47.83
2022-12-03T08:47:56.500Z,52.78
2022-12-03T08:50:30.739Z,48.92
2022-12-03T08:53:05.671Z,50.05
2022-12-03T08:55:33.937Z,48.75
2022-12-03T08:58:01.017Z,50.03
2022-12-03T09:00:28.075Z,54.88
2022-12-03T09:02:55.571Z,48.03
2022-12-03T09:05:23.454Z,48.40
2022-12-03T09:07:50.690Z,53.22
2022-12-03T09:10:17.882Z,47.80
2022-12-03T09:12:44.959Z,47.92
2022-12-03T09:15:12.033Z,50.22
2022-12-03T09:17:39.496Z,48.70
2022-12-03T09:20:06.955Z,48.75
2022-12-03T09:22:33.974Z,44.88
2022-12-03T09:25:01.008Z,49.17
2022-12-03T09:27:28.109Z,52.15
2022-12-03T09:29:55.192Z,52.13
2022-12-03T09:32:22.299Z,43.65
2022-12-03T09:34:49.448Z,51.85
2022-12-03T09:37:16.565Z,52.95
2022-12-03T09:39:43.648Z,50.10
2022-12-03T09:42:10.791Z,50.92
2022-12-03T09:44:38.114Z,51.78
2022-12-03T09:47:05.310Z,46.70
2022-12-03T09:49:36.246Z,50.78
2022-12-03T09:52:03.653Z,50.25
2022-12-03T09:54:30.729Z,51.08
2022-12-03T09:56:57.926Z,52.95
2022-12-03T09:59:26.394Z,46.58
2022-12-03T10:01:53.860Z,51.60
2022-12-03T10:04:21.059Z,54.40
2022-12-03T10:06:48.206Z,52.63
2022-12-03T10:09:17.070Z,54.65
2022-12-03T10:11:44.081Z,51.92
2022-12-03T10:14:12.206Z,51.63
2022-12-03T10:16:40.253Z,49.83
2022-12-03T10:19:07.517Z,51.15
2022-12-03T10:21:37.643Z,53.25
2022-12-03T10:24:25.713Z,49.03
2022-12-03T10:26:53.426Z,53.63
2022-12-03T10:29:29.636Z,53.72
2022-12-03T10:32:03.291Z,64.77
2022-12-03T10:34:34.137Z,57.85
2022-12-03T10:37:20.353Z,54.33
2022-12-03T10:39:56.099Z,50.83
2022-12-03T10:42:23.645Z,52.17
2022-12-03T10:44:53.836Z,55.90
2022-12-03T10:47:22.702Z,54.60
2022-12-03T10:49:51.918Z,54.85
2022-12-03T10:52:25.892Z,52.67
2022-12-03T10:55:10.251Z,52.15
2022-12-03T10:57:41.088Z,52.08
2022-12-03T11:00:17.864Z,55.63
2022-12-03T11:02:45.145Z,53.75
2022-12-03T11:05:19.047Z,51.30
2022-12-03T11:07:46.143Z,54.88
2022-12-03T11:10:14.248Z,49.00
2022-12-03T11:12:41.324Z,58.67
2022-12-03T11:15:14.767Z,56.67
2022-12-03T11:17:53.865Z,51.38
2022-12-03T11:20:22.989Z,54.72
2022-12-03T11:22:56.336Z,59.42
2022-12-03T11:25:28.989Z,62.85
2022-12-03T11:28:11.410Z,61.75
2022-12-03T11:30:50.786Z,55.45
2022-12-03T11:33:30.184Z,55.20
2022-12-03T11:36:06.194Z,50.85
2022-12-03T11:38:47.351Z,54.42
2022-12-03T11:41:18.065Z,51.85
2022-12-03T11:43:57.165Z,56.95
2022-12-03T11:46:36.634Z,49.47
2022-12-03T11:49:04.627Z,50.95
2022-12-03T11:51:31.689Z,51.22
2022-12-03T11:53:59.469Z,52.72
2022-12-03T11:56:27.375Z,54.72
2022-12-03T11:59:01.352Z,48.85
2022-12-03T12:01:39.058Z,51.50
2022-12-03T12:04:06.616Z,58.05
2022-12-03T12:06:43.150Z,51.15
2022-12-03T12:09:10.223Z,47.75
2022-12-03T12:11:41.377Z,49.20
2022-12-03T12:14:09.076Z,53.55
2022-12-03T12:16:52.109Z,51.53
2022-12-03T12:19:28.955Z,48.75
2022-12-03T12:21:56.048Z,49.58
2022-12-03T12:24:32.868Z,48.70
2022-12-03T12:27:01.096Z,50.63
2022-12-03T12:29:28.390Z,49.95
2022-12-03T12:31:58.901Z,50.60
2022-12-03T12:36:53.134Z,57.72
2022-12-03T12:39:20.243Z,51.22
2022-12-03T12:41:50.160Z,55.55
2022-12-03T12:44:18.509Z,48.47
2022-12-03T12:46:48.367Z,50.22
2022-12-03T12:49:16.005Z,51.95
2022-12-03T12:51:46.532Z,50.38
2022-12-03T12:56:42.419Z,47.85
2022-12-03T12:59:22.006Z,50.90
2022-12-03T13:01:49.571Z,57.58
2022-12-03T13:04:23.423Z,49.33
2022-12-03T13:06:51.258Z,48.63
2022-12-03T13:09:19.161Z,51.58
2022-12-03T13:11:56.813Z,50.00
2022-12-03T13:14:24.593Z,55.88
2022-12-03T13:16:52.125Z,54.08
2022-12-03T13:19:19.239Z,52.67
2022-12-03T13:21:46.375Z,51.65
2022-12-03T13:24:33.083Z,48.53
2022-12-03T13:27:00.950Z,49.47
2022-12-03T13:29:28.159Z,52.63
2022-12-03T13:32:02.589Z,50.22
2022-12-03T13:34:32.554Z,50.53
2022-12-03T13:37:00.341Z,52.70
2022-12-03T13:39:32.087Z,52.25
2022-12-03T13:42:37.829Z,51.30
2022-12-03T13:45:16.892Z,58.38
2022-12-03T13:47:47.430Z,54.65
2022-12-03T13:52:41.386Z,47.70
2022-12-03T13:55:10.305Z,50.38
2022-12-03T13:57:37.403Z,57.80
2022-12-03T14:00:04.675Z,48.42
2022-12-03T14:02:31.830Z,52.22
2022-12-03T14:05:00.583Z,51.33
2022-12-03T14:07:28.191Z,54.67
2022-12-03T14:09:55.684Z,47.13
2022-12-03T14:12:25.803Z,54.28
2022-12-03T14:14:53.094Z,53.70
2022-12-03T14:17:20.227Z,46.55
2022-12-03T14:19:47.371Z,50.83
2022-12-03T14:22:14.440Z,54.13
2022-12-03T14:24:41.460Z,53.83
2022-12-03T14:27:08.539Z,46.28
2022-12-03T14:29:35.612Z,56.40
2022-12-03T14:32:02.821Z,51.30
2022-12-03T14:34:29.955Z,50.85
2022-12-03T14:36:57.028Z,52.50
2022-12-03T14:39:24.055Z,55.47
2022-12-03T14:42:09.824Z,56.33
2022-12-03T14:44:36.861Z,54.47
2022-12-03T14:47:03.964Z,50.17
2022-12-03T14:49:31.039Z,53.13
2022-12-03T14:51:58.102Z,56.65
2022-12-03T14:54:25.178Z,58.40
2022-12-03T14:56:52.218Z,53.75
2022-12-03T14:59:23.122Z,54.00
2022-12-03T15:01:54.643Z,50.40
2022-12-03T15:04:21.866Z,54.35
2022-12-03T15:06:48.941Z,59.85
2022-12-03T15:09:15.995Z,53.40
2022-12-03T15:11:46.426Z,50.95
2022-12-03T15:14:13.927Z,46.33
2022-12-03T15:16:41.460Z,50.97
2022-12-03T15:19:08.587Z,52.38
2022-12-03T15:21:35.810Z,52.47
2022-12-03T15:24:03.070Z,52.70
2022-12-03T15:26:30.202Z,53.65
2022-12-03T15:28:57.292Z,52.95
2022-12-03T15:31:24.523Z,57.80
2022-12-03T15:33:51.628Z,54.42
2022-12-03T15:36:18.730Z,56.42
2022-12-03T15:38:45.857Z,51.17
2022-12-03T15:41:24.197Z,51.42
2022-12-03T15:43:51.976Z,53.85
2022-12-03T15:46:19.417Z,53.20
2022-12-03T15:48:46.735Z,54.83
2022-12-03T15:51:13.771Z,57.60
2022-12-03T15:53:40.850Z,55.60
2022-12-03T15:56:08.451Z,53.10
2022-12-03T15:58:35.601Z,53.78
2022-12-03T16:01:02.769Z,54.45
2022-12-03T16:03:29.981Z,54.25
2022-12-03T16:05:57.125Z,48.72
2022-12-03T16:08:24.255Z,49.70
2022-12-03T16:10:51.293Z,52.67
2022-12-03T16:13:18.324Z,54.53
2022-12-03T16:15:45.431Z,58.15
2022-12-03T16:18:12.499Z,52.00
2022-12-03T16:20:39.618Z,51.90
2022-12-03T16:23:07.226Z,53.20
2022-12-03T16:25:34.262Z,55.45
2022-12-03T16:28:01.354Z,50.70
2022-12-03T16:30:28.439Z,56.00
2022-12-03T16:32:55.489Z,54.45
2022-12-03T16:35:22.553Z,56.35
2022-12-03T16:37:49.637Z,55.78
2022-12-03T16:40:16.685Z,55.42
2022-12-03T16:42:43.726Z,53.05
2022-12-03T16:45:10.924Z,56.67
2022-12-03T16:47:37.962Z,56.67
2022-12-03T16:50:06.449Z,60.05
2022-12-03T16:52:33.477Z,53.63
2022-12-03T16:55:00.532Z,59.13
2022-12-03T16:57:31.927Z,60.50
2022-12-03T17:00:00.956Z,55.05
2022-12-03T17:02:28.237Z,60.00
2022-12-03T17:04:55.340Z,57.55
2022-12-03T17:07:22.424Z,60.00
2022-12-03T17:09:49.727Z,57.20
2022-12-03T17:12:16.752Z,58.97
2022-12-03T17:14:43.825Z,56.95
2022-12-03T17:17:10.923Z,56.40
2022-12-03T17:19:38.010Z,57.05
2022-12-03T17:22:05.034Z,61.10
2022-12-03T17:24:32.105Z,54.17
2022-12-03T17:26:59.231Z,51.85
2022-12-03T17:29:26.263Z,51.33
2022-12-03T17:31:53.419Z,56.85
2022-12-03T17:34:20.490Z,58.63
2022-12-03T17:36:47.536Z,56.20
2022-12-03T17:39:14.609Z,57.80
2022-12-03T17:41:41.715Z,62.92
2022-12-03T17:44:11.305Z,54.40
2022-12-03T17:46:39.351Z,58.33
2022-12-03T17:49:06.468Z,58.45
2022-12-03T17:51:33.545Z,58.00
2022-12-03T17:54:00.573Z,57.20
2022-12-03T17:56:27.645Z,68.55
2022-12-03T17:58:54.701Z,57.28
2022-12-03T18:01:21.760Z,53.97
2022-12-03T18:03:48.880Z,57.72
2022-12-03T18:06:16.016Z,60.72
2022-12-03T18:08:43.096Z,57.03
2022-12-03T18:11:10.161Z,57.83
2022-12-03T18:13:37.242Z,61.85
2022-12-03T18:16:04.448Z,68.15
2022-12-03T18:18:31.551Z,62.30
2022-12-03T18:21:02.070Z,62.17
2022-12-03T18:25:56.334Z,57.33
2022-12-03T18:28:23.472Z,55.38
2022-12-03T18:30:52.673Z,54.80
2022-12-03T18:33:21.138Z,59.75
2022-12-03T18:35:48.183Z,59.15
2022-12-03T18:38:15.448Z,61.95
2022-12-03T18:40:43.252Z,50.83
2022-12-03T18:43:13.809Z,55.05
2022-12-03T18:48:17.926Z,51.33
2022-12-03T18:50:45.407Z,55.97
2022-12-03T18:53:12.918Z,50.85
2022-12-03T18:55:40.772Z,53.67
2022-12-03T18:58:07.882Z,59.97
2022-12-03T19:00:35.727Z,58.10
2022-12-03T19:03:04.410Z,51.63
2022-12-03T19:05:32.407Z,59.00
2022-12-03T19:07:59.520Z,58.65
2022-12-03T19:10:26.596Z,55.50
2022-12-03T19:12:53.743Z,53.55
2022-12-03T19:15:20.786Z,59.75
2022-12-03T19:17:50.901Z,62.65
2022-12-03T19:20:17.974Z,59.92
2022-12-03T19:22:45.038Z,59.45
2022-12-03T19:25:12.155Z,54.70
2022-12-03T19:27:39.262Z,54.28
2022-12-03T19:30:06.653Z,53.15
2022-12-03T19:32:34.725Z,58.78
2022-12-03T19:35:04.875Z,54.65
2022-12-03T19:37:33.582Z,51.92
2022-12-03T19:40:00.983Z,54.35
2022-12-03T19:42:28.072Z,57.70
2022-12-03T19:44:55.182Z,58.13
2022-12-03T19:47:24.666Z,60.75
2022-12-03T19:49:53.270Z,56.28
2022-12-03T19:52:20.683Z,54.10
2022-12-03T19:54:47.953Z,60.05
2022-12-03T19:57:21.516Z,49.97
2022-12-03T19:59:50.253Z,51.58
2022-12-03T20:02:17.472Z,56.03
2022-12-03T20:04:44.638Z,54.35
2022-12-03T20:07:11.691Z,51.10
2022-12-03T20:09:38.753Z,45.88
2022-12-03T20:12:05.846Z,55.83
2022-12-03T20:14:32.959Z,51.83
2022-12-03T20:17:00.112Z,57.63
2022-12-03T20:19:27.284Z,52.10
2022-12-03T20:21:59.060Z,56.25
2022-12-03T20:24:29.480Z,50.85
2022-12-03T20:26:56.614Z,57.45
2022-12-03T20:29:23.694Z,48.90
2022-12-03T20:31:50.845Z,50.22
2022-12-03T20:34:18.021Z,50.30
2022-12-03T20:36:45.491Z,50.25
2022-12-03T20:39:12.582Z,49.63
2022-12-03T20:41:39.742Z,52.33
2022-12-03T20:44:07.783Z,48.03
2022-12-03T20:46:34.990Z,58.25
2022-12-03T20:49:02.141Z,52.97
2022-12-03T20:51:29.979Z,49.45
2022-12-03T20:53:57.431Z,54.78
2022-12-03T20:56:25.999Z,45.70
2022-12-03T20:58:53.647Z,49.03
2022-12-03T21:01:22.252Z,55.30
2022-12-03T21:03:49.671Z,54.90
2022-12-03T21:06:16.977Z,49.35
2022-12-03T21:08:44.076Z,53.28
2022-12-03T21:11:11.841Z,49.80
2022-12-03T21:13:43.478Z,58.45
2022-12-03T21:16:14.343Z,55.33
2022-12-03T21:18:41.507Z,51.58
2022-12-03T21:21:08.712Z,51.28
2022-12-03T21:23:35.902Z,52.17
2022-12-03T21:26:03.959Z,55.00
2022-12-03T21:28:31.156Z,49.35
2022-12-03T21:31:05.604Z,52.25
2022-12-03T21:33:32.820Z,50.88
2022-12-03T21:36:00.049Z,52.22
2022-12-03T21:38:27.198Z,48.63
2022-12-03T21:40:54.283Z,51.85
2022-12-03T21:43:21.373Z,50.53
2022-12-03T21:45:48.519Z,52.70
2022-12-03T21:48:15.605Z,48.38
2022-12-03T21:50:42.649Z,48.30
2022-12-03T21:53:09.834Z,46.22
2022-12-03T21:55:39.420Z,47.13
2022-12-03T21:58:06.730Z,41.47
2022-12-03T22:00:33.761Z,45.58
2022-12-03T22:03:00.889Z,47.70
2022-12-03T22:05:27.997Z,46.67
2022-12-03T22:07:55.113Z,46.38
2022-12-03T22:10:22.265Z,42.97
2022-12-03T22:12:49.326Z,48.20
2022-12-03T22:15:19.192Z,45.60
2022-12-03T22:17:46.707Z,40.60
2022-12-03T22:20:13.821Z,41.58
2022-12-03T22:22:41.011Z,45.63
2022-12-03T22:25:08.276Z,43.38
2022-12-03T22:27:35.398Z,46.92
2022-12-03T22:30:02.840Z,39.80
2022-12-03T22:32:29.945Z,40.17
2022-12-03T22:34:57.013Z,40.90
2022-12-03T22:37:24.184Z,38.15
2022-12-03T22:39:51.262Z,41.10
2022-12-03T22:42:18.354Z,41.22
2022-12-03T22:44:45.395Z,43.53
2022-12-03T22:47:12.438Z,40.55
2022-12-03T22:49:39.490Z,41.92
2022-12-03T22:52:06.598Z,41.95
2022-12-03T22:54:33.642Z,39.38
2022-12-03T22:57:00.678Z,39.90
2022-12-03T22:59:27.829Z,42.63
2022-12-03T23:01:54.899Z,39.03
2022-12-03T23:04:22.036Z,39.63
2022-12-03T23:06:49.173Z,39.05
2022-12-03T23:09:16.240Z,37.80
2022-12-03T23:11:44.758Z,39.40
2022-12-03T23:14:12.225Z,34.10
2022-12-03T23:16:39.292Z,35.38
2022-12-03T23:19:06.362Z,40.72
2022-12-03T23:21:34.069Z,34.63
2022-12-03T23:24:01.464Z,31.95
2022-12-03T23:26:28.672Z,32.13
2022-12-03T23:28:57.181Z,33.25
2022-12-03T23:31:27.866Z,36.38
2022-12-03T23:33:55.124Z,35.30
2022-12-03T23:36:22.357Z,37.53
2022-12-03T23:38:49.472Z,36.15
2022-12-03T23:41:17.916Z,34.05
2022-12-03T23:43:44.929Z,33.67
2022-12-03T23:46:19.453Z,36.20
2022-12-03T23:48:46.636Z,32.80
2022-12-03T23:51:14.793Z,30.83
2022-12-03T23:53:41.912Z,35.92
2022-12-03T23:56:09.644Z,36.10
2022-12-03T23:58:36.664Z,32.63
